sensor_id;sensor_type;location;lat;lon;timestamp;temperature;humidity
9437;DHT22;4757;59.334;18.034;2022-12-15T00:01:59;-6.00;99.90
9437;DHT22;4757;59.334;18.034;2022-12-15T00:04:46;-6.10;99.90
9437;DHT22;4757;59.334;18.034;2022-12-15T00:07:33;-6.20;99.90
9437;DHT22;4757;59.334;18.034;2022-12-15T00:10:24;-6.20;99.90
9437;DHT22;4757;59.334;18.034;2022-12-15T00:13:10;-6.30;99.90
9437;DHT22;4757;59.334;18.034;2022-12-15T00:15:57;-6.30;99.90
9437;DHT22;4757;59.334;18.034;2022-12-15T00:18:43;-6.30;99.90
9437;DHT22;4757;59.334;18.034;2022-12-15T00:21:29;-6.30;99.90
9437;DHT22;4757;59.334;18.034;2022-12-15T00:24:15;-6.30;99.90
9437;DHT22;4757;59.334;18.034;2022-12-15T00:27:00;-6.30;99.90
9437;DHT22;4757;59.334;18.034;2022-12-15T00:29:48;-6.30;99.90
9437;DHT22;4757;59.334;18.034;2022-12-15T00:32:33;-6.30;99.90
9437;DHT22;4757;59.334;18.034;2022-12-15T00:35:20;-6.40;99.90
9437;DHT22;4757;59.334;18.034;2022-12-15T00:38:23;-6.40;99.90
9437;DHT22;4757;59.334;18.034;2022-12-15T00:44:17;-6.50;99.90
9437;DHT22;4757;59.334;18.034;2022-12-15T00:46:50;-6.60;99.90
9437;DHT22;4757;59.334;18.034;2022-12-15T00:49:29;-6.70;99.90
9437;DHT22;4757;59.334;18.034;2022-12-15T00:52:16;-6.60;99.90
9437;DHT22;4757;59.334;18.034;2022-12-15T00:55:03;-6.70;99.90
9437;DHT22;4757;59.334;18.034;2022-12-15T00:57:50;-6.80;99.90
9437;DHT22;4757;59.334;18.034;2022-12-15T01:00:37;-6.90;99.90
9437;DHT22;4757;59.334;18.034;2022-12-15T01:03:23;-7.00;99.90
9437;DHT22;4757;59.334;18.034;2022-12-15T01:06:19;-6.90;99.90
9437;DHT22;4757;59.334;18.034;2022-12-15T01:09:06;-7.00;99.90
9437;DHT22;4757;59.334;18.034;2022-12-15T01:11:53;-7.00;99.90
9437;DHT22;4757;59.334;18.034;2022-12-15T01:14:38;-7.00;99.90
9437;DHT22;4757;59.334;18.034;2022-12-15T01:17:24;-7.00;99.90
9437;DHT22;4757;59.334;18.034;2022-12-15T01:20:10;-7.10;99.90
9437;DHT22;4757;59.334;18.034;2022-12-15T01:25:17;-7.10;99.90
9437;DHT22;4757;59.334;18.034;2022-12-15T01:27:45;-7.10;99.90
9437;DHT22;4757;59.334;18.034;2022-12-15T01:30:16;-7.20;99.90
9437;DHT22;4757;59.334;18.034;2022-12-15T01:32:43;-7.10;99.90
9437;DHT22;4757;59.334;18.034;2022-12-15T01:35:12;-7.20;99.90
9437;DHT22;4757;59.334;18.034;2022-12-15T01:37:40;-7.20;99.90
9437;DHT22;4757;59.334;18.034;2022-12-15T01:40:10;-7.10;99.90
9437;DHT22;4757;59.334;18.034;2022-12-15T01:42:57;-7.20;99.90
9437;DHT22;4757;59.334;18.034;2022-12-15T01:48:22;-7.20;99.90
9437;DHT22;4757;59.334;18.034;2022-12-15T01:53:23;-7.30;99.90
9437;DHT22;4757;59.334;18.034;2022-12-15T01:55:50;-7.30;99.90
9437;DHT22;4757;59.334;18.034;2022-12-15T01:58:18;-7.30;99.90
9437;DHT22;4757;59.334;18.034;2022-12-15T02:00:46;-7.30;99.90
9437;DHT22;4757;59.334;18.034;2022-12-15T02:03:13;-7.30;99.90
9437;DHT22;4757;59.334;18.034;2022-12-15T02:05:40;-7.40;99.90
9437;DHT22;4757;59.334;18.034;2022-12-15T02:08:09;-7.40;99.90
9437;DHT22;4757;59.334;18.034;2022-12-15T02:11:00;-7.40;99.90
9437;DHT22;4757;59.334;18.034;2022-12-15T02:13:32;-7.40;99.90
9437;DHT22;4757;59.334;18.034;2022-12-15T02:16:28;-7.40;99.90
9437;DHT22;4757;59.334;18.034;2022-12-15T02:24:48;-7.40;99.90
9437;DHT22;4757;59.334;18.034;2022-12-15T02:27:34;-7.40;99.90
9437;DHT22;4757;59.334;18.034;2022-12-15T02:35:58;-7.40;99.90
9437;DHT22;4757;59.334;18.034;2022-12-15T02:38:33;-7.40;99.90
9437;DHT22;4757;59.334;18.034;2022-12-15T02:41:27;-7.40;99.90
9437;DHT22;4757;59.334;18.034;2022-12-15T02:43:51;-7.40;99.90
9437;DHT22;4757;59.334;18.034;2022-12-15T02:46:30;-7.40;99.90
9437;DHT22;4757;59.334;18.034;2022-12-15T02:49:29;-7.40;99.90
9437;DHT22;4757;59.334;18.034;2022-12-15T02:55:40;-7.40;99.90
9437;DHT22;4757;59.334;18.034;2022-12-15T03:00:50;-7.40;99.90
9437;DHT22;4757;59.334;18.034;2022-12-15T03:03:20;-7.40;99.90
9437;DHT22;4757;59.334;18.034;2022-12-15T03:05:51;-7.50;99.90
9437;DHT22;4757;59.334;18.034;2022-12-15T03:08:21;-7.40;99.90
9437;DHT22;4757;59.334;18.034;2022-12-15T03:10:50;-7.40;99.90
9437;DHT22;4757;59.334;18.034;2022-12-15T03:13:18;-7.50;99.90
9437;DHT22;4757;59.334;18.034;2022-12-15T03:15:46;-7.50;99.90
9437;DHT22;4757;59.334;18.034;2022-12-15T03:18:13;-7.50;99.90
9437;DHT22;4757;59.334;18.034;2022-12-15T03:20:39;-7.50;99.90
9437;DHT22;4757;59.334;18.034;2022-12-15T03:23:06;-7.50;99.90
9437;DHT22;4757;59.334;18.034;2022-12-15T03:25:34;-7.40;99.90
9437;DHT22;4757;59.334;18.034;2022-12-15T03:28:01;-7.40;99.90
9437;DHT22;4757;59.334;18.034;2022-12-15T03:30:28;-7.40;99.90
9437;DHT22;4757;59.334;18.034;2022-12-15T03:32:55;-7.40;99.90
9437;DHT22;4757;59.334;18.034;2022-12-15T03:35:22;-7.40;99.90
9437;DHT22;4757;59.334;18.034;2022-12-15T03:37:49;-7.50;99.90
9437;DHT22;4757;59.334;18.034;2022-12-15T03:40:16;-7.50;99.90
9437;DHT22;4757;59.334;18.034;2022-12-15T03:42:44;-7.50;99.90
9437;DHT22;4757;59.334;18.034;2022-12-15T03:45:21;-7.50;99.90
9437;DHT22;4757;59.334;18.034;2022-12-15T03:47:52;-7.50;99.90
9437;DHT22;4757;59.334;18.034;2022-12-15T03:50:22;-7.50;99.90
9437;DHT22;4757;59.334;18.034;2022-12-15T03:52:54;-7.50;99.90
9437;DHT22;4757;59.334;18.034;2022-12-15T03:55:21;-7.50;99.90
9437;DHT22;4757;59.334;18.034;2022-12-15T03:57:49;-7.50;99.90
9437;DHT22;4757;59.334;18.034;2022-12-15T04:00:18;-7.50;99.90
9437;DHT22;4757;59.334;18.034;2022-12-15T04:02:46;-7.50;99.90
9437;DHT22;4757;59.334;18.034;2022-12-15T04:05:23;-7.50;99.90
9437;DHT22;4757;59.334;18.034;2022-12-15T04:07:55;-7.60;99.90
9437;DHT22;4757;59.334;18.034;2022-12-15T04:10:26;-7.50;99.90
9437;DHT22;4757;59.334;18.034;2022-12-15T04:13:08;-7.60;99.90
9437;DHT22;4757;59.334;18.034;2022-12-15T04:15:38;-7.60;99.90
9437;DHT22;4757;59.334;18.034;2022-12-15T04:18:08;-7.70;99.90
9437;DHT22;4757;59.334;18.034;2022-12-15T04:20:40;-7.70;99.90
9437;DHT22;4757;59.334;18.034;2022-12-15T04:23:07;-7.70;99.90
9437;DHT22;4757;59.334;18.034;2022-12-15T04:25:35;-7.70;99.90
9437;DHT22;4757;59.334;18.034;2022-12-15T04:28:21;-7.70;99.90
9437;DHT22;4757;59.334;18.034;2022-12-15T04:31:09;-7.60;99.90
9437;DHT22;4757;59.334;18.034;2022-12-15T04:34:00;-7.60;99.90
9437;DHT22;4757;59.334;18.034;2022-12-15T04:36:48;-7.60;99.90
9437;DHT22;4757;59.334;18.034;2022-12-15T04:39:42;-7.60;99.90
9437;DHT22;4757;59.334;18.034;2022-12-15T04:42:29;-7.70;99.90
9437;DHT22;4757;59.334;18.034;2022-12-15T04:45:18;-7.70;99.90
9437;DHT22;4757;59.334;18.034;2022-12-15T04:48:04;-7.70;99.90
9437;DHT22;4757;59.334;18.034;2022-12-15T04:50:50;-7.70;99.90
9437;DHT22;4757;59.334;18.034;2022-12-15T04:53:35;-7.80;99.90
9437;DHT22;4757;59.334;18.034;2022-12-15T04:56:21;-7.80;99.90
9437;DHT22;4757;59.334;18.034;2022-12-15T04:59:06;-7.80;99.90
9437;DHT22;4757;59.334;18.034;2022-12-15T05:01:52;-7.80;99.90
9437;DHT22;4757;59.334;18.034;2022-12-15T05:04:38;-7.90;99.90
9437;DHT22;4757;59.334;18.034;2022-12-15T05:07:24;-7.90;99.90
9437;DHT22;4757;59.334;18.034;2022-12-15T05:10:10;-7.90;99.90
9437;DHT22;4757;59.334;18.034;2022-12-15T05:13:03;-7.90;99.90
9437;DHT22;4757;59.334;18.034;2022-12-15T05:15:49;-7.90;99.90
9437;DHT22;4757;59.334;18.034;2022-12-15T05:18:35;-7.90;99.90
9437;DHT22;4757;59.334;18.034;2022-12-15T05:21:21;-7.90;99.90
9437;DHT22;4757;59.334;18.034;2022-12-15T05:24:06;-7.80;99.90
9437;DHT22;4757;59.334;18.034;2022-12-15T05:26:52;-7.80;99.90
9437;DHT22;4757;59.334;18.034;2022-12-15T05:29:37;-7.80;99.90
9437;DHT22;4757;59.334;18.034;2022-12-15T05:32:22;-7.80;99.90
9437;DHT22;4757;59.334;18.034;2022-12-15T05:34:49;-7.80;99.90
9437;DHT22;4757;59.334;18.034;2022-12-15T05:37:16;-7.70;99.90
9437;DHT22;4757;59.334;18.034;2022-12-15T05:39:43;-7.70;99.90
9437;DHT22;4757;59.334;18.034;2022-12-15T05:42:10;-7.70;99.90
9437;DHT22;4757;59.334;18.034;2022-12-15T05:44:38;-7.70;99.90
9437;DHT22;4757;59.334;18.034;2022-12-15T05:47:06;-7.70;99.90
9437;DHT22;4757;59.334;18.034;2022-12-15T05:49:34;-7.70;99.90
9437;DHT22;4757;59.334;18.034;2022-12-15T05:52:01;-7.70;99.90
9437;DHT22;4757;59.334;18.034;2022-12-15T05:54:29;-7.80;99.90
9437;DHT22;4757;59.334;18.034;2022-12-15T05:56:56;-7.80;99.90
9437;DHT22;4757;59.334;18.034;2022-12-15T05:59:22;-7.70;99.90
9437;DHT22;4757;59.334;18.034;2022-12-15T06:01:50;-7.70;99.90
9437;DHT22;4757;59.334;18.034;2022-12-15T06:04:17;-7.80;99.90
9437;DHT22;4757;59.334;18.034;2022-12-15T06:06:44;-7.70;99.90
9437;DHT22;4757;59.334;18.034;2022-12-15T06:09:11;-7.80;99.90
9437;DHT22;4757;59.334;18.034;2022-12-15T06:11:38;-7.80;99.90
9437;DHT22;4757;59.334;18.034;2022-12-15T06:14:05;-7.80;99.90
9437;DHT22;4757;59.334;18.034;2022-12-15T06:16:34;-7.90;99.90
9437;DHT22;4757;59.334;18.034;2022-12-15T06:19:09;-7.90;99.90
9437;DHT22;4757;59.334;18.034;2022-12-15T06:21:38;-7.80;99.90
9437;DHT22;4757;59.334;18.034;2022-12-15T06:24:06;-7.70;99.90
9437;DHT22;4757;59.334;18.034;2022-12-15T06:26:35;-7.70;99.90
9437;DHT22;4757;59.334;18.034;2022-12-15T06:29:06;-7.80;99.90
9437;DHT22;4757;59.334;18.034;2022-12-15T06:31:38;-7.60;99.90
9437;DHT22;4757;59.334;18.034;2022-12-15T06:34:08;-7.60;99.90
9437;DHT22;4757;59.334;18.034;2022-12-15T06:36:36;-7.40;99.90
9437;DHT22;4757;59.334;18.034;2022-12-15T06:39:05;-7.50;99.90
9437;DHT22;4757;59.334;18.034;2022-12-15T06:41:32;-7.40;99.90
9437;DHT22;4757;59.334;18.034;2022-12-15T06:44:00;-7.50;99.90
9437;DHT22;4757;59.334;18.034;2022-12-15T06:46:28;-7.50;99.90
9437;DHT22;4757;59.334;18.034;2022-12-15T06:48:56;-7.50;99.90
9437;DHT22;4757;59.334;18.034;2022-12-15T06:51:24;-7.40;99.90
9437;DHT22;4757;59.334;18.034;2022-12-15T06:53:51;-7.40;99.90
9437;DHT22;4757;59.334;18.034;2022-12-15T06:56:33;-7.40;99.90
9437;DHT22;4757;59.334;18.034;2022-12-15T06:59:10;-7.60;99.90
9437;DHT22;4757;59.334;18.034;2022-12-15T07:01:37;-7.60;99.90
9437;DHT22;4757;59.334;18.034;2022-12-15T07:04:04;-7.50;99.90
9437;DHT22;4757;59.334;18.034;2022-12-15T07:06:34;-7.60;99.90
9437;DHT22;4757;59.334;18.034;2022-12-15T07:09:05;-7.70;99.90
9437;DHT22;4757;59.334;18.034;2022-12-15T07:11:33;-7.70;99.90
9437;DHT22;4757;59.334;18.034;2022-12-15T07:14:01;-7.80;99.90
9437;DHT22;4757;59.334;18.034;2022-12-15T07:16:28;-7.80;99.90
9437;DHT22;4757;59.334;18.034;2022-12-15T07:18:55;-7.80;99.90
9437;DHT22;4757;59.334;18.034;2022-12-15T07:21:22;-7.70;99.90
9437;DHT22;4757;59.334;18.034;2022-12-15T07:23:49;-7.80;99.90
9437;DHT22;4757;59.334;18.034;2022-12-15T07:26:23;-7.80;99.90
9437;DHT22;4757;59.334;18.034;2022-12-15T07:28:50;-7.80;99.90
9437;DHT22;4757;59.334;18.034;2022-12-15T07:31:18;-7.90;99.90
9437;DHT22;4757;59.334;18.034;2022-12-15T07:33:45;-7.90;99.90
9437;DHT22;4757;59.334;18.034;2022-12-15T07:36:14;-7.90;99.90
9437;DHT22;4757;59.334;18.034;2022-12-15T07:38:41;-7.80;99.90
9437;DHT22;4757;59.334;18.034;2022-12-15T07:41:17;-7.80;99.90
9437;DHT22;4757;59.334;18.034;2022-12-15T07:43:44;-7.80;99.90
9437;DHT22;4757;59.334;18.034;2022-12-15T07:46:13;-7.80;99.90
9437;DHT22;4757;59.334;18.034;2022-12-15T07:48:41;-7.70;99.90
9437;DHT22;4757;59.334;18.034;2022-12-15T07:51:09;-7.70;99.90
9437;DHT22;4757;59.334;18.034;2022-12-15T07:53:45;-7.70;99.90
9437;DHT22;4757;59.334;18.034;2022-12-15T07:56:13;-7.70;99.90
9437;DHT22;4757;59.334;18.034;2022-12-15T07:58:41;-7.80;99.90
9437;DHT22;4757;59.334;18.034;2022-12-15T08:01:10;-7.70;99.90
9437;DHT22;4757;59.334;18.034;2022-12-15T08:03:38;-7.90;99.90
9437;DHT22;4757;59.334;18.034;2022-12-15T08:06:11;-7.90;99.90
9437;DHT22;4757;59.334;18.034;2022-12-15T08:08:39;-7.90;99.90
9437;DHT22;4757;59.334;18.034;2022-12-15T08:11:09;-8.00;99.90
9437;DHT22;4757;59.334;18.034;2022-12-15T08:13:38;-7.90;99.90
9437;DHT22;4757;59.334;18.034;2022-12-15T08:16:25;-7.90;99.90
9437;DHT22;4757;59.334;18.034;2022-12-15T08:18:52;-7.80;99.90
9437;DHT22;4757;59.334;18.034;2022-12-15T08:21:19;-7.80;99.90
9437;DHT22;4757;59.334;18.034;2022-12-15T08:23:46;-7.80;99.90
9437;DHT22;4757;59.334;18.034;2022-12-15T08:26:16;-7.90;99.90
9437;DHT22;4757;59.334;18.034;2022-12-15T08:28:44;-7.90;99.90
9437;DHT22;4757;59.334;18.034;2022-12-15T08:31:18;-7.90;99.90
9437;DHT22;4757;59.334;18.034;2022-12-15T08:33:46;-7.80;99.90
9437;DHT22;4757;59.334;18.034;2022-12-15T08:36:15;-7.90;99.90
9437;DHT22;4757;59.334;18.034;2022-12-15T08:38:44;-7.90;99.90
9437;DHT22;4757;59.334;18.034;2022-12-15T08:41:14;-7.90;99.90
9437;DHT22;4757;59.334;18.034;2022-12-15T08:43:41;-7.90;99.90
9437;DHT22;4757;59.334;18.034;2022-12-15T08:46:22;-7.90;99.90
9437;DHT22;4757;59.334;18.034;2022-12-15T08:48:49;-7.80;99.90
9437;DHT22;4757;59.334;18.034;2022-12-15T08:51:18;-7.80;99.90
9437;DHT22;4757;59.334;18.034;2022-12-15T08:53:46;-7.90;99.90
9437;DHT22;4757;59.334;18.034;2022-12-15T08:56:16;-7.80;99.90
9437;DHT22;4757;59.334;18.034;2022-12-15T08:58:45;-7.80;99.90
9437;DHT22;4757;59.334;18.034;2022-12-15T09:01:16;-7.70;99.90
9437;DHT22;4757;59.334;18.034;2022-12-15T09:03:50;-7.60;99.90
9437;DHT22;4757;59.334;18.034;2022-12-15T09:06:29;-7.60;99.90
9437;DHT22;4757;59.334;18.034;2022-12-15T09:08:58;-7.60;99.90
9437;DHT22;4757;59.334;18.034;2022-12-15T09:11:26;-7.50;99.90
9437;DHT22;4757;59.334;18.034;2022-12-15T09:13:54;-7.50;99.90
9437;DHT22;4757;59.334;18.034;2022-12-15T09:16:21;-7.50;99.90
9437;DHT22;4757;59.334;18.034;2022-12-15T09:18:55;-7.50;99.90
9437;DHT22;4757;59.334;18.034;2022-12-15T09:21:24;-7.60;99.90
9437;DHT22;4757;59.334;18.034;2022-12-15T09:23:58;-7.60;99.90
9437;DHT22;4757;59.334;18.034;2022-12-15T09:26:29;-7.60;99.90
9437;DHT22;4757;59.334;18.034;2022-12-15T09:28:57;-7.50;99.90
9437;DHT22;4757;59.334;18.034;2022-12-15T09:31:26;-7.40;99.90
9437;DHT22;4757;59.334;18.034;2022-12-15T09:33:56;-7.40;99.90
9437;DHT22;4757;59.334;18.034;2022-12-15T09:36:24;-7.30;99.90
9437;DHT22;4757;59.334;18.034;2022-12-15T09:38:51;-7.30;99.90
9437;DHT22;4757;59.334;18.034;2022-12-15T09:41:22;-7.30;99.90
9437;DHT22;4757;59.334;18.034;2022-12-15T09:44:06;-7.10;99.90
9437;DHT22;4757;59.334;18.034;2022-12-15T09:55:02;-7.00;99.90
9437;DHT22;4757;59.334;18.034;2022-12-15T09:57:43;-6.90;99.90
9437;DHT22;4757;59.334;18.034;2022-12-15T10:05:58;-6.70;99.90
9437;DHT22;4757;59.334;18.034;2022-12-15T10:08:53;-6.70;99.90
9437;DHT22;4757;59.334;18.034;2022-12-15T10:17:17;-6.80;99.90
9437;DHT22;4757;59.334;18.034;2022-12-15T10:22:37;-6.50;99.90
9437;DHT22;4757;59.334;18.034;2022-12-15T10:25:14;-6.50;99.90
9437;DHT22;4757;59.334;18.034;2022-12-15T10:28:03;-6.50;99.90
9437;DHT22;4757;59.334;18.034;2022-12-15T10:30:34;-6.50;99.90
9437;DHT22;4757;59.334;18.034;2022-12-15T10:33:36;-6.50;99.90
9437;DHT22;4757;59.334;18.034;2022-12-15T10:35:56;-6.40;99.90
9437;DHT22;4757;59.334;18.034;2022-12-15T10:38:34;-6.40;99.90
9437;DHT22;4757;59.334;18.034;2022-12-15T10:41:11;-6.30;99.90
9437;DHT22;4757;59.334;18.034;2022-12-15T10:43:42;-6.40;99.90
9437;DHT22;4757;59.334;18.034;2022-12-15T10:46:13;-6.40;99.90
9437;DHT22;4757;59.334;18.034;2022-12-15T10:48:42;-6.30;99.90
9437;DHT22;4757;59.334;18.034;2022-12-15T10:53:47;-6.40;99.90
9437;DHT22;4757;59.334;18.034;2022-12-15T11:01:48;-6.30;99.90
9437;DHT22;4757;59.334;18.034;2022-12-15T11:04:30;-6.30;99.90
9437;DHT22;4757;59.334;18.034;2022-12-15T11:07:00;-6.30;99.90
9437;DHT22;4757;59.334;18.034;2022-12-15T11:09:36;-6.30;99.90
9437;DHT22;4757;59.334;18.034;2022-12-15T11:12:17;-6.30;99.90
9437;DHT22;4757;59.334;18.034;2022-12-15T11:17:56;-6.20;99.90
9437;DHT22;4757;59.334;18.034;2022-12-15T11:20:31;-6.10;99.90
9437;DHT22;4757;59.334;18.034;2022-12-15T11:23:08;-6.20;99.90
9437;DHT22;4757;59.334;18.034;2022-12-15T11:25:43;-6.20;99.90
9437;DHT22;4757;59.334;18.034;2022-12-15T11:28:17;-6.10;99.90
9437;DHT22;4757;59.334;18.034;2022-12-15T11:31:52;-6.20;99.90
9437;DHT22;4757;59.334;18.034;2022-12-15T11:33:54;-6.20;99.90
9437;DHT22;4757;59.334;18.034;2022-12-15T11:36:48;-6.20;99.90
9437;DHT22;4757;59.334;18.034;2022-12-15T11:48:15;-6.30;99.90
9437;DHT22;4757;59.334;18.034;2022-12-15T11:51:05;-6.50;99.90
9437;DHT22;4757;59.334;18.034;2022-12-15T11:56:46;-6.40;99.90
9437;DHT22;4757;59.334;18.034;2022-12-15T12:07:51;-6.40;99.90
9437;DHT22;4757;59.334;18.034;2022-12-15T12:15:56;-6.40;99.90
9437;DHT22;4757;59.334;18.034;2022-12-15T12:18:33;-6.40;99.90
9437;DHT22;4757;59.334;18.034;2022-12-15T12:21:07;-6.40;99.90
9437;DHT22;4757;59.334;18.034;2022-12-15T12:26:45;-6.50;99.90
9437;DHT22;4757;59.334;18.034;2022-12-15T12:32:14;-6.50;99.90
9437;DHT22;4757;59.334;18.034;2022-12-15T12:35:20;-6.40;99.90
9437;DHT22;4757;59.334;18.034;2022-12-15T12:38:04;-6.50;99.90
9437;DHT22;4757;59.334;18.034;2022-12-15T12:43:29;-6.60;99.90
9437;DHT22;4757;59.334;18.034;2022-12-15T12:46:09;-6.60;99.90
9437;DHT22;4757;59.334;18.034;2022-12-15T12:49:04;-6.60;99.90
9437;DHT22;4757;59.334;18.034;2022-12-15T12:51:35;-6.50;99.90
9437;DHT22;4757;59.334;18.034;2022-12-15T12:59:43;-6.70;99.90
9437;DHT22;4757;59.334;18.034;2022-12-15T13:05:00;-6.70;99.90
9437;DHT22;4757;59.334;18.034;2022-12-15T13:07:34;-6.80;99.90
9437;DHT22;4757;59.334;18.034;2022-12-15T13:10:17;-6.90;99.90
9437;DHT22;4757;59.334;18.034;2022-12-15T13:18:04;-6.90;99.90
9437;DHT22;4757;59.334;18.034;2022-12-15T13:20:35;-6.90;99.90
9437;DHT22;4757;59.334;18.034;2022-12-15T13:44:44;-7.20;99.90
9437;DHT22;4757;59.334;18.034;2022-12-15T13:47:21;-7.30;99.90
9437;DHT22;4757;59.334;18.034;2022-12-15T13:52:49;-7.40;99.90
9437;DHT22;4757;59.334;18.034;2022-12-15T13:55:39;-7.40;99.90
9437;DHT22;4757;59.334;18.034;2022-12-15T13:58:42;-7.40;99.90
9437;DHT22;4757;59.334;18.034;2022-12-15T14:01:19;-7.40;99.90
9437;DHT22;4757;59.334;18.034;2022-12-15T14:06:34;-7.30;99.90
9437;DHT22;4757;59.334;18.034;2022-12-15T14:09:02;-7.40;99.90
9437;DHT22;4757;59.334;18.034;2022-12-15T14:11:33;-7.50;99.90
9437;DHT22;4757;59.334;18.034;2022-12-15T14:14:23;-7.50;99.90
9437;DHT22;4757;59.334;18.034;2022-12-15T14:17:03;-7.50;99.90
9437;DHT22;4757;59.334;18.034;2022-12-15T14:19:39;-7.50;99.90
9437;DHT22;4757;59.334;18.034;2022-12-15T14:22:28;-7.50;99.90
9437;DHT22;4757;59.334;18.034;2022-12-15T14:25:07;-7.40;99.90
9437;DHT22;4757;59.334;18.034;2022-12-15T14:27:39;-7.50;99.90
9437;DHT22;4757;59.334;18.034;2022-12-15T14:33:07;-7.50;99.90
9437;DHT22;4757;59.334;18.034;2022-12-15T14:35:48;-7.40;99.90
9437;DHT22;4757;59.334;18.034;2022-12-15T14:38:41;-7.50;99.90
9437;DHT22;4757;59.334;18.034;2022-12-15T14:41:18;-7.40;99.90
9437;DHT22;4757;59.334;18.034;2022-12-15T14:43:47;-7.40;99.90
9437;DHT22;4757;59.334;18.034;2022-12-15T14:46:35;-7.50;99.90
9437;DHT22;4757;59.334;18.034;2022-12-15T14:49:08;-7.50;99.90
9437;DHT22;4757;59.334;18.034;2022-12-15T14:51:43;-7.50;99.90
9437;DHT22;4757;59.334;18.034;2022-12-15T14:54:37;-7.50;99.90
9437;DHT22;4757;59.334;18.034;2022-12-15T14:59:40;-7.40;99.90
9437;DHT22;4757;59.334;18.034;2022-12-15T15:02:22;-7.40;99.90
9437;DHT22;4757;59.334;18.034;2022-12-15T15:05:04;-7.30;99.90
9437;DHT22;4757;59.334;18.034;2022-12-15T15:07:34;-7.40;99.90
9437;DHT22;4757;59.334;18.034;2022-12-15T15:10:22;-7.60;99.90
9437;DHT22;4757;59.334;18.034;2022-12-15T15:12:53;-7.60;99.90
9437;DHT22;4757;59.334;18.034;2022-12-15T15:15:24;-7.60;99.90
9437;DHT22;4757;59.334;18.034;2022-12-15T15:17:53;-7.50;99.90
9437;DHT22;4757;59.334;18.034;2022-12-15T15:25:39;-7.60;99.90
9437;DHT22;4757;59.334;18.034;2022-12-15T15:33:15;-7.70;99.90
9437;DHT22;4757;59.334;18.034;2022-12-15T15:35:43;-7.80;99.90
9437;DHT22;4757;59.334;18.034;2022-12-15T15:38:31;-7.80;99.90
9437;DHT22;4757;59.334;18.034;2022-12-15T15:41:14;-7.80;99.90
9437;DHT22;4757;59.334;18.034;2022-12-15T15:43:42;-7.80;99.90
9437;DHT22;4757;59.334;18.034;2022-12-15T15:46:14;-7.80;99.90
9437;DHT22;4757;59.334;18.034;2022-12-15T15:48:48;-7.80;99.90
9437;DHT22;4757;59.334;18.034;2022-12-15T15:51:16;-7.80;99.90
9437;DHT22;4757;59.334;18.034;2022-12-15T15:53:44;-7.80;99.90
9437;DHT22;4757;59.334;18.034;2022-12-15T15:56:13;-7.80;99.90
9437;DHT22;4757;59.334;18.034;2022-12-15T15:58:41;-7.80;99.90
9437;DHT22;4757;59.334;18.034;2022-12-15T16:01:12;-7.70;99.90
9437;DHT22;4757;59.334;18.034;2022-12-15T16:03:40;-7.80;99.90
9437;DHT22;4757;59.334;18.034;2022-12-15T16:06:18;-7.80;99.90
9437;DHT22;4757;59.334;18.034;2022-12-15T16:08:50;-7.80;99.90
9437;DHT22;4757;59.334;18.034;2022-12-15T16:11:17;-7.80;99.90
9437;DHT22;4757;59.334;18.034;2022-12-15T16:13:45;-7.70;99.90
9437;DHT22;4757;59.334;18.034;2022-12-15T16:16:18;-7.80;99.90
9437;DHT22;4757;59.334;18.034;2022-12-15T16:18:45;-7.90;99.90
9437;DHT22;4757;59.334;18.034;2022-12-15T16:21:14;-7.90;99.90
9437;DHT22;4757;59.334;18.034;2022-12-15T16:23:45;-7.90;99.90
9437;DHT22;4757;59.334;18.034;2022-12-15T16:26:16;-7.80;99.90
9437;DHT22;4757;59.334;18.034;2022-12-15T16:28:43;-7.70;99.90
9437;DHT22;4757;59.334;18.034;2022-12-15T16:31:15;-7.80;99.90
9437;DHT22;4757;59.334;18.034;2022-12-15T16:33:52;-7.80;99.90
9437;DHT22;4757;59.334;18.034;2022-12-15T16:36:20;-7.80;99.90
9437;DHT22;4757;59.334;18.034;2022-12-15T16:38:47;-7.90;99.90
9437;DHT22;4757;59.334;18.034;2022-12-15T16:41:16;-7.90;99.90
9437;DHT22;4757;59.334;18.034;2022-12-15T16:43:43;-7.90;99.90
9437;DHT22;4757;59.334;18.034;2022-12-15T16:46:14;-7.80;99.90
9437;DHT22;4757;59.334;18.034;2022-12-15T16:48:42;-7.70;99.90
9437;DHT22;4757;59.334;18.034;2022-12-15T16:53:59;-7.70;99.90
9437;DHT22;4757;59.334;18.034;2022-12-15T16:56:26;-7.70;99.90
9437;DHT22;4757;59.334;18.034;2022-12-15T16:58:53;-7.70;99.90
9437;DHT22;4757;59.334;18.034;2022-12-15T17:01:43;-7.70;99.90
9437;DHT22;4757;59.334;18.034;2022-12-15T17:04:11;-7.80;99.90
9437;DHT22;4757;59.334;18.034;2022-12-15T17:06:38;-7.90;99.90
9437;DHT22;4757;59.334;18.034;2022-12-15T17:09:05;-8.00;99.90
9437;DHT22;4757;59.334;18.034;2022-12-15T17:11:34;-8.00;99.90
9437;DHT22;4757;59.334;18.034;2022-12-15T17:14:01;-8.00;99.90
9437;DHT22;4757;59.334;18.034;2022-12-15T17:16:28;-8.00;99.90
9437;DHT22;4757;59.334;18.034;2022-12-15T17:18:55;-8.00;99.90
9437;DHT22;4757;59.334;18.034;2022-12-15T17:21:29;-8.00;99.90
9437;DHT22;4757;59.334;18.034;2022-12-15T17:24:06;-8.20;99.90
9437;DHT22;4757;59.334;18.034;2022-12-15T17:26:35;-8.10;99.90
9437;DHT22;4757;59.334;18.034;2022-12-15T17:29:08;-8.10;99.90
9437;DHT22;4757;59.334;18.034;2022-12-15T17:31:39;-8.10;99.90
9437;DHT22;4757;59.334;18.034;2022-12-15T17:37:00;-8.20;99.90
9437;DHT22;4757;59.334;18.034;2022-12-15T17:39:28;-8.30;99.90
9437;DHT22;4757;59.334;18.034;2022-12-15T17:41:56;-8.30;99.90
9437;DHT22;4757;59.334;18.034;2022-12-15T17:44:33;-8.30;99.90
9437;DHT22;4757;59.334;18.034;2022-12-15T17:47:05;-8.20;99.90
9437;DHT22;4757;59.334;18.034;2022-12-15T17:49:33;-8.30;99.90
9437;DHT22;4757;59.334;18.034;2022-12-15T17:54:54;-8.20;99.90
9437;DHT22;4757;59.334;18.034;2022-12-15T17:57:22;-8.20;99.90
9437;DHT22;4757;59.334;18.034;2022-12-15T17:59:50;-8.30;99.90
9437;DHT22;4757;59.334;18.034;2022-12-15T18:02:17;-8.30;99.90
9437;DHT22;4757;59.334;18.034;2022-12-15T18:04:44;-8.40;99.90
9437;DHT22;4757;59.334;18.034;2022-12-15T18:07:22;-8.40;99.90
9437;DHT22;4757;59.334;18.034;2022-12-15T18:09:50;-8.40;99.90
9437;DHT22;4757;59.334;18.034;2022-12-15T18:12:23;-8.30;99.90
9437;DHT22;4757;59.334;18.034;2022-12-15T18:14:50;-8.40;99.90
9437;DHT22;4757;59.334;18.034;2022-12-15T18:17:18;-8.40;99.90
9437;DHT22;4757;59.334;18.034;2022-12-15T18:19:45;-8.50;99.90
9437;DHT22;4757;59.334;18.034;2022-12-15T18:22:17;-8.50;99.90
9437;DHT22;4757;59.334;18.034;2022-12-15T18:24:48;-8.50;99.90
9437;DHT22;4757;59.334;18.034;2022-12-15T18:27:21;-8.50;99.90
9437;DHT22;4757;59.334;18.034;2022-12-15T18:29:49;-8.50;99.90
9437;DHT22;4757;59.334;18.034;2022-12-15T18:32:17;-8.50;99.90
9437;DHT22;4757;59.334;18.034;2022-12-15T18:34:44;-8.20;99.90
9437;DHT22;4757;59.334;18.034;2022-12-15T18:37:18;-8.20;99.90
9437;DHT22;4757;59.334;18.034;2022-12-15T18:39:45;-8.30;99.90
9437;DHT22;4757;59.334;18.034;2022-12-15T18:42:14;-8.00;99.90
9437;DHT22;4757;59.334;18.034;2022-12-15T18:44:50;-8.10;99.90
9437;DHT22;4757;59.334;18.034;2022-12-15T18:47:22;-8.20;99.90
9437;DHT22;4757;59.334;18.034;2022-12-15T18:49:49;-8.30;99.90
9437;DHT22;4757;59.334;18.034;2022-12-15T18:52:21;-8.30;99.90
9437;DHT22;4757;59.334;18.034;2022-12-15T18:54:50;-8.20;99.90
9437;DHT22;4757;59.334;18.034;2022-12-15T18:57:38;-8.20;99.90
9437;DHT22;4757;59.334;18.034;2022-12-15T19:02:40;-8.30;99.90
9437;DHT22;4757;59.334;18.034;2022-12-15T19:05:08;-8.30;99.90
9437;DHT22;4757;59.334;18.034;2022-12-15T19:08:13;-8.30;99.90
9437;DHT22;4757;59.334;18.034;2022-12-15T19:10:47;-8.30;99.90
9437;DHT22;4757;59.334;18.034;2022-12-15T19:13:16;-8.30;99.90
9437;DHT22;4757;59.334;18.034;2022-12-15T19:15:44;-8.30;99.90